Time;durP1;ratioP1;P1;durP2;ratioP2;P2;SDS_P1;SDS_P2;PMS_P1;PMS_P2;Temp;Humidity;BMP_temperature;BMP_pressure;BME280_temperature;BME280_humidity;BME280_pressure;Samples;Min_cycle;Max_cycle;Signal;HPM_P1;HPM_P2
2021/07/28 00:00:36;;;;;;;9.68;8.60;;;22.10;1.00;;;;;;5034560;28;20033;-81
2021/07/28 00:03:02;;;;;;;12.88;9.40;;;22.10;1.00;;;;;;5032949;28;20022;-81
2021/07/28 00:05:28;;;;;;;11.30;9.15;;;22.00;1.00;;;;;;5032093;28;20025;-81
2021/07/28 00:07:53;;;;;;;10.13;7.97;;;22.00;1.00;;;;;;5032115;28;20510;-81
2021/07/28 00:10:19;;;;;;;10.52;8.82;;;22.10;1.00;;;;;;5032988;28;20065;-81
2021/07/28 00:12:45;;;;;;;10.90;8.77;;;22.10;1.00;;;;;;5033238;28;20461;-81
2021/07/28 00:15:11;;;;;;;13.50;9.27;;;22.10;1.00;;;;;;5033158;28;20056;-81
2021/07/28 00:17:43;;;;;;;13.52;8.95;;;22.10;1.00;;;;;;5034008;28;20021;-81
2021/07/28 00:20:16;;;;;;;9.13;7.82;;;22.00;1.00;;;;;;5033524;28;20029;-81
2021/07/28 00:25:26;;;;;;;10.60;8.52;;;21.90;1.00;;;;;;5030292;28;20128;-81
2021/07/28 00:27:52;;;;;;;10.85;9.00;;;21.70;1.00;;;;;;5035912;28;20096;-81
2021/07/28 00:30:18;;;;;;;12.18;8.55;;;21.70;1.00;;;;;;5033469;28;20033;-81
2021/07/28 00:32:44;;;;;;;12.20;8.75;;;21.60;1.00;;;;;;5033530;28;20025;-81
2021/07/28 00:35:10;;;;;;;11.05;8.90;;;21.50;1.00;;;;;;5033990;28;20362;-81
2021/07/28 00:37:36;;;;;;;10.13;8.43;;;21.60;1.00;;;;;;5027970;28;20026;-81
2021/07/28 00:40:03;;;;;;;11.40;9.15;;;21.70;1.00;;;;;;5042396;28;20025;-81
2021/07/28 00:42:29;;;;;;;9.68;8.75;;;21.80;1.00;;;;;;5031919;28;20117;-80
2021/07/28 00:44:57;;;;;;;10.45;9.32;;;21.80;1.00;;;;;;5031834;28;20052;-82
2021/07/28 00:47:22;;;;;;;10.40;9.40;;;21.80;1.00;;;;;;5033698;28;20033;-81
2021/07/28 00:49:49;;;;;;;11.13;9.48;;;21.70;1.00;;;;;;5031204;28;20056;-81
2021/07/28 00:52:15;;;;;;;11.07;9.35;;;21.60;1.00;;;;;;5032248;28;20026;-81
2021/07/28 00:54:41;;;;;;;14.02;10.00;;;21.50;1.00;;;;;;5035025;28;20037;-81
2021/07/28 00:57:08;;;;;;;9.90;8.38;;;21.50;1.00;;;;;;5036236;28;20033;-81
2021/07/28 00:59:34;;;;;;;12.40;9.55;;;21.40;1.00;;;;;;5036878;28;20029;-81
2021/07/28 01:02:00;;;;;;;11.85;9.30;;;21.30;1.00;;;;;;5036521;28;20083;-82
2021/07/28 01:04:25;;;;;;;12.57;9.77;;;21.50;1.00;;;;;;5033215;28;20037;-82
2021/07/28 01:06:51;;;;;;;11.68;9.70;;;21.50;1.00;;;;;;5039097;28;20037;-81
2021/07/28 01:09:17;;;;;;;11.85;9.70;;;21.30;1.00;;;;;;5036956;28;20052;-81
2021/07/28 01:11:43;;;;;;;11.02;8.90;;;21.30;1.00;;;;;;5036111;28;20404;-81
2021/07/28 01:14:08;;;;;;;11.25;9.40;;;21.40;1.00;;;;;;5036748;28;20129;-81
2021/07/28 01:16:40;;;;;;;10.32;9.07;;;21.50;1.00;;;;;;5032442;28;20474;-82
2021/07/28 01:19:12;;;;;;;12.25;9.10;;;21.50;1.00;;;;;;5046762;28;20061;-81
2021/07/28 01:21:40;;;;;;;10.38;9.27;;;21.50;1.00;;;;;;5037339;28;20033;-82
2021/07/28 01:24:06;;;;;;;10.60;9.50;;;21.30;1.00;;;;;;5034805;28;20556;-82
2021/07/28 01:26:34;;;;;;;11.68;9.02;;;21.30;1.00;;;;;;5036234;28;20493;-81
2021/07/28 01:28:59;;;;;;;10.70;8.90;;;21.20;1.00;;;;;;5035791;28;20044;-81
2021/07/28 01:31:25;;;;;;;10.82;9.48;;;21.20;1.00;;;;;;5032947;28;20026;-81
2021/07/28 01:33:51;;;;;;;10.68;9.13;;;21.10;1.00;;;;;;5037176;28;20413;-81
2021/07/28 01:36:19;;;;;;;10.20;9.10;;;20.90;1.00;;;;;;5036697;28;20025;-81
2021/07/28 01:38:45;;;;;;;11.68;9.82;;;20.90;1.00;;;;;;5036118;28;20029;-81
2021/07/28 01:41:11;;;;;;;11.15;9.90;;;20.90;1.00;;;;;;5035727;28;20090;-81
2021/07/28 01:43:38;;;;;;;14.20;9.90;;;20.80;1.00;;;;;;5031128;28;20040;-82
2021/07/28 01:46:05;;;;;;;14.52;11.00;;;20.70;1.00;;;;;;5037597;28;20029;-81
2021/07/28 01:48:31;;;;;;;12.48;10.48;;;20.50;1.00;;;;;;5045076;28;20033;-81
2021/07/28 01:50:57;;;;;;;12.85;11.27;;;20.50;1.00;;;;;;5040231;28;20029;-82
2021/07/28 01:53:25;;;;;;;12.75;10.82;;;20.30;1.00;;;;;;5036098;28;20041;-81
2021/07/28 01:55:52;;;;;;;11.20;10.00;;;20.40;1.00;;;;;;5033842;28;20048;-81
2021/07/28 01:58:19;;;;;;;13.85;11.40;;;20.50;1.00;;;;;;5034403;28;20029;-82
2021/07/28 02:00:45;;;;;;;13.57;10.63;;;20.60;1.00;;;;;;5035796;28;20022;-82
2021/07/28 02:03:11;;;;;;;14.23;10.65;;;20.80;1.00;;;;;;5034213;28;20034;-81
2021/07/28 02:05:38;;;;;;;11.20;10.00;;;20.70;1.00;;;;;;5036302;28;20040;-82
2021/07/28 02:08:06;;;;;;;12.30;10.20;;;20.60;1.00;;;;;;5034464;28;20386;-81
2021/07/28 02:10:34;;;;;;;14.82;10.27;;;20.70;1.00;;;;;;5030965;28;20040;-81
2021/07/28 02:13:01;;;;;;;16.90;11.35;;;20.80;1.00;;;;;;5037665;28;20032;-82
2021/07/28 02:15:27;;;;;;;17.58;10.48;;;20.80;1.00;;;;;;5035514;28;20418;-82
2021/07/28 02:17:55;;;;;;;13.90;10.32;;;20.90;1.00;;;;;;5035472;28;20033;-82
2021/07/28 02:20:21;;;;;;;13.07;10.55;;;20.90;1.00;;;;;;5035367;28;20024;-81
2021/07/28 02:22:47;;;;;;;11.63;10.18;;;21.00;1.00;;;;;;5032603;28;20029;-82
2021/07/28 02:25:13;;;;;;;13.10;9.85;;;20.80;1.00;;;;;;5034604;28;20033;-82
2021/07/28 02:27:39;;;;;;;13.15;10.98;;;20.70;1.00;;;;;;5036268;28;20068;-81
2021/07/28 02:30:06;;;;;;;13.95;10.68;;;20.80;1.00;;;;;;5035047;28;20485;-81
2021/07/28 02:32:32;;;;;;;10.43;9.35;;;20.90;1.00;;;;;;5035345;28;20075;-82
2021/07/28 02:34:58;;;;;;;12.82;10.23;;;20.90;1.00;;;;;;5034051;28;20072;-82
2021/07/28 02:37:23;;;;;;;11.45;9.75;;;21.00;1.00;;;;;;5032174;28;20053;-81
2021/07/28 02:39:49;;;;;;;10.93;9.77;;;20.90;1.00;;;;;;5035609;28;20474;-82
2021/07/28 02:42:14;;;;;;;14.82;9.50;;;20.90;1.00;;;;;;5033542;28;20021;-82
2021/07/28 02:44:40;;;;;;;12.05;9.98;;;20.90;1.00;;;;;;5035410;28;20021;-82
2021/07/28 02:47:06;;;;;;;11.82;9.68;;;20.90;1.00;;;;;;5034774;28;20044;-81
2021/07/28 02:49:31;;;;;;;12.10;10.68;;;20.80;1.00;;;;;;5030699;28;20038;-81
2021/07/28 02:51:57;;;;;;;12.55;9.68;;;20.90;1.00;;;;;;5036857;28;20022;-82
2021/07/28 02:54:23;;;;;;;13.65;10.20;;;20.90;1.00;;;;;;5034525;28;20454;-81
2021/07/28 02:56:49;;;;;;;12.48;10.27;;;20.90;1.00;;;;;;5035026;28;20030;-81
2021/07/28 02:59:16;;;;;;;12.95;10.27;;;20.90;1.00;;;;;;5034766;28;20063;-81
2021/07/28 03:01:41;;;;;;;12.98;10.55;;;20.90;1.00;;;;;;5030905;28;20075;-81
2021/07/28 03:04:07;;;;;;;13.60;9.48;;;20.80;1.00;;;;;;5035361;28;20037;-81
2021/07/28 03:06:33;;;;;;;13.32;9.73;;;20.80;1.00;;;;;;5035320;28;20057;-82
2021/07/28 03:08:58;;;;;;;12.20;9.70;;;20.80;1.00;;;;;;5032903;28;20485;-81
2021/07/28 03:11:24;;;;;;;13.00;9.55;;;20.70;1.00;;;;;;5034360;28;20033;-82
2021/07/28 03:13:50;;;;;;;14.35;10.43;;;20.70;1.00;;;;;;5032262;28;20037;-82
2021/07/28 03:16:15;;;;;;;15.48;10.00;;;20.60;1.00;;;;;;5033331;28;20478;-81
2021/07/28 03:18:41;;;;;;;13.02;9.82;;;20.50;1.00;;;;;;5033240;28;20481;-81
2021/07/28 03:21:07;;;;;;;11.13;9.85;;;20.40;1.00;;;;;;5032329;28;20478;-81
2021/07/28 03:23:33;;;;;;;11.65;10.13;;;20.40;1.00;;;;;;5034693;28;20056;-81
2021/07/28 03:25:59;;;;;;;11.02;9.32;;;20.40;1.00;;;;;;5033204;28;20464;-81
2021/07/28 03:28:24;;;;;;;15.10;10.10;;;20.40;1.00;;;;;;5031072;28;20034;-81
2021/07/28 03:30:50;;;;;;;13.07;9.93;;;20.40;1.00;;;;;;5036097;28;20033;-81
2021/07/28 03:33:17;;;;;;;15.10;10.38;;;20.30;1.00;;;;;;5034488;28;20128;-81
2021/07/28 03:35:43;;;;;;;10.15;9.05;;;20.20;1.00;;;;;;5033937;28;20021;-82
2021/07/28 03:38:10;;;;;;;13.60;10.00;;;20.20;1.00;;;;;;5033836;28;20396;-82
2021/07/28 03:40:36;;;;;;;12.52;10.32;;;20.40;1.00;;;;;;5028904;28;20030;-81
2021/07/28 03:43:01;;;;;;;11.73;9.80;;;20.40;1.00;;;;;;5035881;28;20034;-81
2021/07/28 03:45:27;;;;;;;12.43;9.93;;;20.40;1.00;;;;;;5034227;28;20033;-81
2021/07/28 03:47:52;;;;;;;13.75;10.00;;;20.50;1.00;;;;;;5033916;28;20040;-81
2021/07/28 03:50:18;;;;;;;10.98;9.52;;;20.40;1.00;;;;;;5032512;28;20037;-82
2021/07/28 03:52:44;;;;;;;11.40;9.23;;;20.40;1.00;;;;;;5030744;28;20448;-80
2021/07/28 03:55:10;;;;;;;11.43;10.02;;;20.30;1.00;;;;;;5034185;28;20156;-81
2021/07/28 03:57:36;;;;;;;13.85;11.93;;;20.30;1.00;;;;;;5034038;28;20489;-81
2021/07/28 04:00:04;;;;;;;13.40;10.85;;;20.00;1.00;;;;;;5032438;28;20032;-81
2021/07/28 04:02:30;;;;;;;11.65;10.10;;;19.90;1.00;;;;;;5034064;28;20027;-81
2021/07/28 04:04:55;;;;;;;14.85;9.88;;;20.00;1.00;;;;;;5032697;28;20034;-81
2021/07/28 04:07:21;;;;;;;16.92;9.80;;;20.00;1.00;;;;;;5029283;28;20036;-81
2021/07/28 04:09:47;;;;;;;13.50;9.35;;;19.90;1.00;;;;;;5035788;28;20116;-81
2021/07/28 04:12:13;;;;;;;11.57;8.77;;;19.90;1.00;;;;;;5039633;28;20619;-81
2021/07/28 04:14:39;;;;;;;14.32;9.63;;;20.00;1.00;;;;;;5040814;28;20049;-81
2021/07/28 04:17:05;;;;;;;11.90;9.00;;;20.00;1.00;;;;;;5033300;28;20493;-81
2021/07/28 04:19:30;;;;;;;11.35;8.90;;;20.00;1.00;;;;;;5029627;28;20025;-81
2021/07/28 04:21:56;;;;;;;11.25;9.30;;;20.00;1.00;;;;;;5035589;28;20493;-81
2021/07/28 04:24:22;;;;;;;11.35;10.07;;;20.00;1.00;;;;;;5032601;28;20124;-81
2021/07/28 04:26:47;;;;;;;12.65;9.45;;;19.90;1.00;;;;;;5033266;28;20439;-81
2021/07/28 04:29:13;;;;;;;11.57;9.38;;;20.00;1.00;;;;;;5033991;28;20108;-81
2021/07/28 04:31:38;;;;;;;15.27;9.57;;;20.10;1.00;;;;;;5032483;28;20145;-81
2021/07/28 04:34:04;;;;;;;10.05;9.05;;;20.00;1.00;;;;;;5039003;28;20508;-81
2021/07/28 04:36:30;;;;;;;12.88;9.60;;;20.10;1.00;;;;;;5036157;28;20517;-81
2021/07/28 04:38:55;;;;;;;11.00;9.07;;;20.00;1.00;;;;;;5035717;28;20057;-81
2021/07/28 04:41:21;;;;;;;11.38;9.05;;;20.00;1.00;;;;;;5037364;28;20029;-81
2021/07/28 04:43:47;;;;;;;10.57;9.50;;;19.90;1.00;;;;;;5034273;28;20029;-81
2021/07/28 04:46:12;;;;;;;15.02;9.57;;;19.90;1.00;;;;;;5037567;28;20029;-81
2021/07/28 04:48:38;;;;;;;11.82;9.00;;;19.80;1.00;;;;;;5037734;28;20034;-81
2021/07/28 04:51:03;;;;;;;11.82;10.05;;;19.80;1.00;;;;;;5035633;28;20021;-81
2021/07/28 04:53:29;;;;;;;12.73;10.05;;;19.80;1.00;;;;;;5037414;28;20035;-81
2021/07/28 04:55:56;;;;;;;11.27;10.10;;;19.80;1.00;;;;;;5035344;28;20029;-81
2021/07/28 04:58:22;;;;;;;15.32;10.45;;;19.90;1.00;;;;;;5034616;28;20029;-81
2021/07/28 05:00:49;;;;;;;12.45;9.85;;;19.90;1.00;;;;;;5038857;28;20569;-81
2021/07/28 05:03:15;;;;;;;12.10;9.50;;;20.00;1.00;;;;;;5036665;28;20032;-81
2021/07/28 05:05:41;;;;;;;14.00;10.38;;;20.00;1.00;;;;;;5036842;28;20026;-81
2021/07/28 05:08:07;;;;;;;11.25;10.13;;;20.10;1.00;;;;;;5036893;28;20021;-81
2021/07/28 05:10:33;;;;;;;11.82;10.00;;;20.00;1.00;;;;;;5032392;28;20041;-81
2021/07/28 05:12:58;;;;;;;10.88;9.55;;;20.10;1.00;;;;;;5038531;28;20493;-81
2021/07/28 05:15:24;;;;;;;11.82;10.00;;;20.10;1.00;;;;;;5035482;28;20057;-81
2021/07/28 05:17:49;;;;;;;10.82;9.40;;;20.10;1.00;;;;;;5034560;28;20124;-81
2021/07/28 05:20:17;;;;;;;14.80;10.50;;;20.10;1.00;;;;;;5036381;28;20110;-81
2021/07/28 05:22:43;;;;;;;10.88;9.60;;;20.10;1.00;;;;;;5033446;28;20033;-81
2021/07/28 05:25:09;;;;;;;11.50;9.35;;;20.20;1.00;;;;;;5036470;28;20022;-81
2021/07/28 05:27:35;;;;;;;11.15;10.05;;;20.20;1.00;;;;;;5037222;28;20108;-81
2021/07/28 05:30:02;;;;;;;12.60;9.00;;;20.20;1.00;;;;;;5036016;28;20097;-81
2021/07/28 05:32:28;;;;;;;10.50;9.00;;;20.10;1.00;;;;;;5036828;28;20571;-81
2021/07/28 05:34:54;;;;;;;11.85;8.85;;;20.00;1.00;;;;;;5034301;28;20033;-81
2021/07/28 05:37:20;;;;;;;10.57;8.63;;;19.90;1.00;;;;;;5033603;28;20021;-81
2021/07/28 05:39:46;;;;;;;8.85;8.00;;;19.90;1.00;;;;;;5036135;28;20029;-81
2021/07/28 05:42:12;;;;;;;8.73;7.70;;;20.00;1.00;;;;;;5034997;28;20549;-81
2021/07/28 05:44:37;;;;;;;10.63;7.70;;;19.90;1.00;;;;;;5036251;28;20146;-82
2021/07/28 05:47:03;;;;;;;9.15;6.40;;;20.00;1.00;;;;;;5035106;28;20035;-81
2021/07/28 05:49:29;;;;;;;9.13;6.03;;;20.10;1.00;;;;;;5032373;28;20026;-81
2021/07/28 05:51:55;;;;;;;6.80;6.20;;;20.10;1.00;;;;;;5038205;28;20469;-81
2021/07/28 05:54:21;;;;;;;7.93;5.65;;;20.20;1.00;;;;;;5034902;28;20037;-81
2021/07/28 05:56:47;;;;;;;6.60;5.85;;;20.30;1.00;;;;;;5034311;28;20021;-81
2021/07/28 05:59:12;;;;;;;6.53;5.88;;;20.40;1.00;;;;;;5035905;28;20413;-81
2021/07/28 06:01:38;;;;;;;7.88;6.35;;;20.50;1.00;;;;;;5029561;28;20522;-80
2021/07/28 06:04:04;;;;;;;8.63;5.97;;;20.60;1.00;;;;;;5037460;28;20021;-80
2021/07/28 06:06:29;;;;;;;9.93;6.25;;;20.60;1.00;;;;;;5035199;28;20371;-80
2021/07/28 06:08:55;;;;;;;7.65;5.90;;;20.70;1.00;;;;;;5035568;28;20033;-80
2021/07/28 06:11:22;;;;;;;7.93;6.03;;;20.80;1.00;;;;;;5035923;28;20112;-79
2021/07/28 06:13:48;;;;;;;6.32;5.72;;;21.00;1.00;;;;;;5032495;28;20038;-81
2021/07/28 06:16:14;;;;;;;6.95;5.65;;;21.00;1.00;;;;;;5034837;28;20029;-81
2021/07/28 06:18:39;;;;;;;7.40;6.63;;;21.10;1.00;;;;;;5036982;28;20021;-80
2021/07/28 06:21:05;;;;;;;10.70;6.40;;;21.20;1.00;;;;;;5035380;28;20052;-81
2021/07/28 06:23:31;;;;;;;8.20;6.80;;;21.20;1.00;;;;;;5035250;28;20409;-80
2021/07/28 06:25:57;;;;;;;7.43;6.53;;;21.20;1.00;;;;;;5033860;28;20043;-81
2021/07/28 06:28:23;;;;;;;10.35;6.20;;;21.30;1.00;;;;;;5032832;28;20105;-81
2021/07/28 06:30:51;;;;;;;6.70;6.00;;;21.40;1.00;;;;;;5036462;28;20030;-80
2021/07/28 06:33:17;;;;;;;8.88;6.20;;;21.40;1.00;;;;;;5032412;28;20389;-81
2021/07/28 06:35:43;;;;;;;5.95;5.25;;;21.50;1.00;;;;;;5028347;28;20182;-80
2021/07/28 06:38:09;;;;;;;6.70;5.97;;;21.50;1.00;;;;;;5031649;28;20025;-80
2021/07/28 06:40:35;;;;;;;10.70;5.88;;;21.40;1.00;;;;;;5030328;28;20049;-81
2021/07/28 06:43:00;;;;;;;8.90;6.40;;;21.40;1.00;;;;;;5036480;28;20072;-81
2021/07/28 06:45:26;;;;;;;8.98;6.63;;;21.30;1.00;;;;;;5034702;28;20033;-81
2021/07/28 06:47:52;;;;;;;8.13;6.75;;;21.30;1.00;;;;;;5035231;28;20033;-81
2021/07/28 06:50:19;;;;;;;8.68;7.32;;;21.40;1.00;;;;;;5034471;28;20021;-82
2021/07/28 06:52:46;;;;;;;9.65;6.95;;;21.40;1.00;;;;;;5031240;28;20053;-81
2021/07/28 06:55:12;;;;;;;9.43;6.13;;;21.40;1.00;;;;;;5034201;28;20038;-81
2021/07/28 06:57:38;;;;;;;9.00;6.57;;;21.10;1.00;;;;;;5035007;28;20390;-81
2021/07/28 07:00:05;;;;;;;11.07;6.82;;;21.10;1.00;;;;;;5034265;28;20064;-82
2021/07/28 07:02:31;;;;;;;8.80;6.85;;;21.10;1.00;;;;;;5034329;28;20021;-82
2021/07/28 07:04:57;;;;;;;10.02;7.20;;;21.00;1.00;;;;;;5032816;28;20064;-82
2021/07/28 07:07:24;;;;;;;8.52;6.40;;;21.10;1.00;;;;;;5031952;28;20030;-81
2021/07/28 07:09:52;;;;;;;8.80;6.55;;;21.10;1.00;;;;;;5036403;28;20033;-81
2021/07/28 07:12:18;;;;;;;8.48;6.47;;;21.20;1.00;;;;;;5032721;28;20107;-82
2021/07/28 07:14:45;;;;;;;10.60;7.07;;;21.20;1.00;;;;;;5031255;28;20651;-81
2021/07/28 07:17:10;;;;;;;7.07;6.00;;;21.20;1.00;;;;;;5035015;28;20021;-81
2021/07/28 07:19:36;;;;;;;9.00;6.40;;;21.30;1.00;;;;;;5029521;28;20048;-81
2021/07/28 07:22:02;;;;;;;7.97;6.30;;;21.30;1.00;;;;;;5043150;28;20043;-80
2021/07/28 07:24:27;;;;;;;6.65;5.75;;;21.40;1.00;;;;;;5034920;28;20103;-81
2021/07/28 07:26:53;;;;;;;11.70;6.90;;;21.40;1.00;;;;;;5034196;28;20043;-81
2021/07/28 07:29:18;;;;;;;8.60;6.00;;;21.50;1.00;;;;;;5033587;28;20036;-81
2021/07/28 07:31:44;;;;;;;9.43;6.15;;;21.60;1.00;;;;;;5030719;28;20021;-81
2021/07/28 07:34:10;;;;;;;8.02;5.80;;;21.70;1.00;;;;;;5034331;28;20041;-81
2021/07/28 07:36:36;;;;;;;11.52;6.47;;;21.70;1.00;;;;;;5035238;28;20028;-81
2021/07/28 07:39:03;;;;;;;7.60;6.13;;;21.70;1.00;;;;;;5032779;28;20116;-81
2021/07/28 07:41:29;;;;;;;7.22;6.38;;;21.60;1.00;;;;;;5033922;28;20025;-81
2021/07/28 07:43:57;;;;;;;8.60;6.45;;;21.60;1.00;;;;;;5032147;28;20523;-81
2021/07/28 07:46:24;;;;;;;8.93;6.80;;;21.50;1.00;;;;;;5031125;28;20482;-81
2021/07/28 07:48:49;;;;;;;10.10;7.80;;;21.60;1.00;;;;;;5036200;28;20105;-81
2021/07/28 07:51:15;;;;;;;11.55;7.03;;;21.60;1.00;;;;;;5031403;28;20108;-81
2021/07/28 07:53:41;;;;;;;8.38;7.10;;;21.70;1.00;;;;;;5032573;28;20029;-81
2021/07/28 07:56:07;;;;;;;8.25;6.72;;;21.80;1.00;;;;;;5033448;28;20081;-81
2021/07/28 07:58:35;;;;;;;9.20;7.43;;;22.00;1.00;;;;;;5029387;28;20124;-81
2021/07/28 08:01:12;;;;;;;9.23;6.95;;;22.20;1.00;;;;;;5035960;28;20128;-80
2021/07/28 08:03:42;;;;;;;9.30;6.38;;;22.40;1.00;;;;;;5033663;28;20048;-81
2021/07/28 08:06:09;;;;;;;8.25;6.40;;;22.80;1.00;;;;;;5035898;28;20022;-81
2021/07/28 08:08:35;;;;;;;8.05;6.18;;;23.10;1.00;;;;;;5037885;28;20029;-81
2021/07/28 08:11:06;;;;;;;7.57;6.28;;;23.30;1.00;;;;;;5035541;28;20037;-81
2021/07/28 08:13:32;;;;;;;6.22;5.65;;;23.40;1.00;;;;;;5033141;28;20029;-80
2021/07/28 08:15:57;;;;;;;5.65;4.90;;;23.40;1.00;;;;;;5039684;28;20401;-81
2021/07/28 08:18:23;;;;;;;6.68;5.50;;;23.30;1.00;;;;;;5037639;28;20029;-81
2021/07/28 08:20:49;;;;;;;8.50;5.63;;;23.10;1.00;;;;;;5038214;28;20490;-81
2021/07/28 08:23:15;;;;;;;6.05;5.32;;;23.20;1.00;;;;;;5037625;28;20021;-81
2021/07/28 08:25:41;;;;;;;6.38;5.07;;;23.20;1.00;;;;;;5033487;28;20029;-81
2021/07/28 08:28:06;;;;;;;11.57;5.68;;;23.30;1.00;;;;;;5038468;28;20394;-81
2021/07/28 08:30:32;;;;;;;12.85;5.82;;;23.40;1.00;;;;;;5036860;28;20025;-80
2021/07/28 08:32:57;;;;;;;10.90;6.03;;;23.40;1.00;;;;;;5034562;28;20041;-81
2021/07/28 08:35:23;;;;;;;7.93;5.10;;;23.10;1.00;;;;;;5037344;28;20171;-81
2021/07/28 08:37:49;;;;;;;6.70;5.30;;;23.10;1.00;;;;;;5034768;28;20040;-81
2021/07/28 08:40:17;;;;;;;8.90;5.20;;;23.10;1.00;;;;;;5036307;28;20033;-81
2021/07/28 08:42:48;;;;;;;8.82;5.43;;;23.40;1.00;;;;;;5038616;28;20470;-81
2021/07/28 08:45:15;;;;;;;6.13;4.97;;;23.70;1.00;;;;;;5036537;28;20089;-81
2021/07/28 08:47:42;;;;;;;5.57;4.38;;;23.70;99.90;;;;;;5036933;28;20036;-81
2021/07/28 08:50:13;;;;;;;5.20;4.70;;;23.90;99.90;;;;;;5037554;28;20032;-81
2021/07/28 08:52:40;;;;;;;5.60;4.45;;;24.10;99.90;;;;;;5017486;28;20096;-81
2021/07/28 08:55:07;;;;;;;6.32;4.53;;;24.20;99.90;;;;;;5038785;28;20052;-81
2021/07/28 08:57:34;;;;;;;5.90;4.53;;;24.40;99.90;;;;;;5036908;28;20041;-81
2021/07/28 09:00:01;;;;;;;5.47;4.60;;;24.50;99.90;;;;;;5037321;28;20032;-81
2021/07/28 09:02:28;;;;;;;6.85;4.85;;;24.80;99.90;;;;;;5036834;28;20029;-81
2021/07/28 09:04:54;;;;;;;8.40;4.70;;;25.10;99.90;;;;;;5034665;28;20414;-81
2021/07/28 09:07:23;;;;;;;4.95;4.55;;;25.30;99.90;;;;;;5035867;28;20057;-81
2021/07/28 09:09:54;;;;;;;6.55;4.45;;;25.20;99.90;;;;;;5036618;28;20108;-81
2021/07/28 09:12:29;;;;;;;4.80;4.35;;;25.70;99.90;;;;;;5034754;28;20025;-81
2021/07/28 09:15:00;;;;;;;5.07;4.57;;;25.80;99.90;;;;;;5036671;28;20128;-80
2021/07/28 09:17:27;;;;;;;9.15;5.03;;;26.20;99.90;;;;;;5035438;28;20055;-81
2021/07/28 09:19:54;;;;;;;6.75;4.70;;;26.30;99.90;;;;;;5047912;28;20021;-81
2021/07/28 09:22:21;;;;;;;5.43;4.30;;;26.60;99.90;;;;;;5034485;28;20208;-81
2021/07/28 09:25:18;;;;;;;4.85;4.43;;;26.10;99.90;;;;;;5035897;28;20839;-81
2021/07/28 09:27:52;;;;;;;6.32;4.30;;;26.10;99.90;;;;;;5037767;28;20048;-81
2021/07/28 09:30:24;;;;;;;4.97;4.47;;;26.10;99.90;;;;;;5035070;28;20116;-81
2021/07/28 09:33:03;;;;;;;5.25;4.68;;;25.90;99.90;;;;;;5036339;28;20512;-81
2021/07/28 09:35:47;;;;;;;5.38;4.60;;;26.00;99.90;;;;;;5036213;28;20047;-81
2021/07/28 09:38:37;;;;;;;8.50;4.97;;;26.40;99.90;;;;;;5036451;28;20162;-81
2021/07/28 09:41:21;;;;;;;5.57;4.35;;;26.90;99.90;;;;;;5034959;28;20354;-81
2021/07/28 09:43:58;;;;;;;4.68;4.28;;;27.20;99.90;;;;;;5019205;28;20433;-81
2021/07/28 09:46:25;;;;;;;4.68;4.18;;;27.50;99.90;;;;;;5033874;28;20079;-81
2021/07/28 09:48:51;;;;;;;4.57;4.18;;;27.30;99.90;;;;;;5036782;28;20026;-81
2021/07/28 09:51:36;;;;;;;4.80;4.30;;;27.50;99.90;;;;;;5034346;28;20164;-81
2021/07/28 09:54:09;;;;;;;6.80;4.60;;;27.30;99.90;;;;;;5035459;28;20124;-81
2021/07/28 09:56:38;;;;;;;5.07;4.57;;;27.10;99.90;;;;;;5036127;28;20030;-81
2021/07/28 09:59:05;;;;;;;4.60;4.20;;;26.90;99.90;;;;;;5035585;28;20448;-81
2021/07/28 10:01:33;;;;;;;4.60;4.20;;;26.90;99.90;;;;;;5031894;28;20030;-81
2021/07/28 10:04:00;;;;;;;6.43;4.80;;;26.50;99.90;;;;;;5037746;28;20415;-81
2021/07/28 10:06:31;;;;;;;5.25;4.60;;;26.40;99.90;;;;;;5035563;28;20033;-81
2021/07/28 10:08:58;;;;;;;5.25;4.55;;;26.40;99.90;;;;;;5033976;28;20029;-81
2021/07/28 10:11:24;;;;;;;6.80;4.60;;;26.00;99.90;;;;;;5035865;28;20040;-81
2021/07/28 10:13:53;;;;;;;5.40;4.40;;;26.00;99.90;;;;;;5032590;28;20128;-81
2021/07/28 10:16:19;;;;;;;5.10;4.25;;;25.80;99.90;;;;;;5034187;28;20112;-81
2021/07/28 10:18:46;;;;;;;5.68;4.78;;;25.60;99.90;;;;;;5036968;28;20504;-81
2021/07/28 10:21:12;;;;;;;7.63;4.43;;;25.80;99.90;;;;;;5035102;28;20017;-81
2021/07/28 10:23:38;;;;;;;4.68;4.28;;;26.00;99.90;;;;;;5035775;28;20048;-81
2021/07/28 10:26:05;;;;;;;6.70;4.75;;;26.30;99.90;;;;;;5033315;28;20040;-81
2021/07/28 10:28:32;;;;;;;4.35;3.95;;;26.30;99.90;;;;;;5030496;28;20080;-81
2021/07/28 10:31:18;;;;;;;4.75;4.35;;;25.90;99.90;;;;;;5036570;28;20026;-81
2021/07/28 10:33:56;;;;;;;6.70;4.20;;;25.60;99.90;;;;;;5036567;28;20032;-81
2021/07/28 10:36:45;;;;;;;5.32;4.55;;;25.60;99.90;;;;;;5034970;28;20108;-81
2021/07/28 10:39:12;;;;;;;4.55;4.15;;;25.60;99.90;;;;;;5024036;28;20036;-81
2021/07/28 10:41:38;;;;;;;4.85;4.15;;;25.90;99.90;;;;;;5035329;28;20033;-81
2021/07/28 10:44:07;;;;;;;4.30;3.90;;;26.70;99.90;;;;;;5034577;28;20017;-81
2021/07/28 10:46:52;;;;;;;5.80;4.43;;;27.00;99.90;;;;;;5030950;28;20052;-81
2021/07/28 10:49:36;;;;;;;6.72;4.13;;;27.10;99.90;;;;;;5045070;28;20112;-81
2021/07/28 10:52:08;;;;;;;4.95;4.07;;;27.60;99.90;;;;;;5036215;28;20029;-81
2021/07/28 10:54:49;;;;;;;4.82;4.40;;;27.80;99.90;;;;;;5035191;28;20513;-81
2021/07/28 10:57:33;;;;;;;5.50;4.50;;;27.60;99.90;;;;;;5035143;28;20026;-81
2021/07/28 11:00:00;;;;;;;5.10;4.60;;;27.80;99.90;;;;;;5034705;28;20108;-81
2021/07/28 11:02:51;;;;;;;4.70;4.20;;;28.20;99.90;;;;;;5035077;28;20037;-81
2021/07/28 11:05:31;;;;;;;4.60;4.20;;;28.50;99.90;;;;;;5025065;28;20040;-81
2021/07/28 11:08:05;;;;;;;4.43;4.03;;;28.40;99.90;;;;;;5031348;28;20037;-81
2021/07/28 11:10:51;;;;;;;6.18;4.40;;;28.90;99.90;;;;;;5030973;28;20116;-81
2021/07/28 11:13:20;;;;;;;4.60;4.20;;;29.10;99.90;;;;;;5044852;28;20493;-81
2021/07/28 11:16:03;;;;;;;5.90;4.57;;;29.40;99.90;;;;;;5035881;28;20049;-81
2021/07/28 11:18:35;;;;;;;5.05;4.55;;;28.30;99.90;;;;;;5034287;28;20045;-81
2021/07/28 11:21:09;;;;;;;4.43;4.00;;;28.30;99.90;;;;;;5033673;28;20036;-81
2021/07/28 11:23:34;;;;;;;4.90;4.10;;;28.10;99.90;;;;;;5034725;28;20063;-81
2021/07/28 11:26:01;;;;;;;3.95;3.65;;;28.50;99.90;;;;;;5033030;28;20515;-81
2021/07/28 11:28:28;;;;;;;4.55;4.00;;;29.10;99.90;;;;;;5031200;28;20042;-81
2021/07/28 11:30:59;;;;;;;4.30;3.90;;;30.60;99.90;;;;;;5036702;28;20596;-81
2021/07/28 11:33:26;;;;;;;3.85;3.55;;;32.80;99.90;;;;;;5034711;28;20033;-81
2021/07/28 11:35:54;;;;;;;5.38;3.85;;;35.60;99.90;;;;;;5034085;28;20118;-81
2021/07/28 11:38:22;;;;;;;4.50;4.05;;;38.10;99.90;;;;;;5034080;28;20401;-81
2021/07/28 11:40:50;;;;;;;3.75;3.40;;;38.50;99.90;;;;;;5030553;28;20052;-81
2021/07/28 11:43:27;;;;;;;5.13;3.90;;;39.80;99.90;;;;;;5033488;28;20028;-82
2021/07/28 11:46:04;;;;;;;4.15;3.75;;;38.40;99.90;;;;;;5035177;28;20386;-81
2021/07/28 11:48:57;;;;;;;4.68;3.90;;;40.10;99.90;;;;;;5032396;28;20029;-81
2021/07/28 11:51:26;;;;;;;5.63;3.70;;;35.40;99.90;;;;;;5008294;28;20057;-81
2021/07/28 11:53:52;;;;;;;4.70;4.28;;;32.90;99.90;;;;;;5034332;28;20288;-81
2021/07/28 11:56:19;;;;;;;4.35;3.75;;;33.30;99.90;;;;;;5032734;28;20127;-81
2021/07/28 11:58:48;;;;;;;4.13;3.78;;;33.30;99.90;;;;;;5030166;28;20476;-81
2021/07/28 12:01:29;;;;;;;4.18;3.78;;;32.50;99.90;;;;;;5034317;28;20032;-81
2021/07/28 12:04:07;;;;;;;3.90;3.60;;;32.60;99.90;;;;;;5034447;28;20112;-81
2021/07/28 12:06:41;;;;;;;4.60;3.65;;;37.00;99.90;;;;;;5033111;28;20042;-81
2021/07/28 12:09:19;;;;;;;4.30;3.90;;;34.30;99.90;;;;;;5033697;28;20037;-81
2021/07/28 12:11:57;;;;;;;3.95;3.60;;;33.50;99.90;;;;;;5033796;28;20021;-81
2021/07/28 12:14:27;;;;;;;4.78;3.70;;;36.80;99.90;;;;;;5033373;28;20063;-82
2021/07/28 12:17:19;;;;;;;4.22;3.83;;;39.40;99.90;;;;;;5031121;28;20021;-82
2021/07/28 12:20:04;;;;;;;3.80;3.50;;;40.50;99.90;;;;;;5012473;28;20053;-82
2021/07/28 12:22:34;;;;;;;4.32;3.72;;;40.00;99.90;;;;;;5029869;28;20030;-82
2021/07/28 12:25:19;;;;;;;4.00;3.70;;;37.20;99.90;;;;;;5035136;28;20073;-82
2021/07/28 12:27:57;;;;;;;4.15;3.75;;;34.90;99.90;;;;;;5035341;28;20033;-81
2021/07/28 12:30:37;;;;;;;4.35;3.70;;;34.40;99.90;;;;;;5033885;28;20405;-81
2021/07/28 12:33:15;;;;;;;4.47;4.10;;;33.20;99.90;;;;;;5033024;28;20065;-80
2021/07/28 12:35:47;;;;;;;5.63;4.05;;;32.10;99.90;;;;;;5033480;28;20030;-81
2021/07/28 12:38:17;;;;;;;4.57;4.18;;;34.60;99.90;;;;;;5033423;28;20057;-82
2021/07/28 12:40:44;;;;;;;4.65;4.25;;;34.10;99.90;;;;;;5030027;28;20033;-82
2021/07/28 12:43:11;;;;;;;5.13;4.53;;;33.40;99.90;;;;;;5034241;28;20038;-81
2021/07/28 12:45:37;;;;;;;3.72;3.42;;;34.60;99.90;;;;;;5032639;28;20030;-82
2021/07/28 12:48:04;;;;;;;4.85;4.35;;;33.60;99.90;;;;;;5033113;28;20469;-82
2021/07/28 12:50:30;;;;;;;5.53;4.13;;;32.70;99.90;;;;;;5033202;28;20374;-82
2021/07/28 12:52:59;;;;;;;4.50;4.10;;;36.10;99.90;;;;;;5034754;28;20021;-82
2021/07/28 12:55:24;;;;;;;5.90;4.75;;;35.70;99.90;;;;;;5034304;28;20041;-82